createdAt,value
2022-08-04T00:01:37.843Z,96038.22
2022-08-04T00:04:33.162Z,96038.97
2022-08-04T00:07:13.259Z,96045.09
2022-08-04T00:10:07.044Z,96041.06
2022-08-04T00:12:39.692Z,96037.84
2022-08-04T00:15:10.459Z,96037.34
2022-08-04T00:17:46.961Z,96043.28
2022-08-04T00:20:18.876Z,96045.19
2022-08-04T00:22:47.598Z,96041.44
2022-08-04T00:25:15.025Z,96035.81
2022-08-04T00:27:41.799Z,96035.75
2022-08-04T00:30:09.132Z,96036.50
2022-08-04T00:32:35.997Z,96033.81
2022-08-04T00:35:03.042Z,96031.69
2022-08-04T00:37:30.363Z,96045.00
2022-08-04T00:39:57.731Z,96037.81
2022-08-04T00:42:34.540Z,96027.91
2022-08-04T00:45:24.228Z,96033.53
2022-08-04T00:48:04.548Z,96037.25
2022-08-04T00:50:45.752Z,96032.69
2022-08-04T00:53:18.290Z,96034.28
2022-08-04T00:56:12.899Z,96032.91
2022-08-04T00:58:47.662Z,96032.59
2022-08-04T01:01:29.837Z,96035.22
2022-08-04T01:04:22.098Z,96034.91
2022-08-04T01:06:56.219Z,96029.31
2022-08-04T01:09:33.804Z,96035.41
2022-08-04T01:12:37.448Z,96030.59
2022-08-04T01:15:04.664Z,96035.13
2022-08-04T01:17:41.899Z,96038.84
2022-08-04T01:20:10.407Z,96044.75
2022-08-04T01:23:07.790Z,96036.44
2022-08-04T01:25:59.431Z,96037.19
2022-08-04T01:28:49.633Z,96033.94
2022-08-04T01:31:50.587Z,96035.72
2022-08-04T01:34:20.521Z,96030.59
2022-08-04T01:36:57.878Z,96037.25
2022-08-04T01:39:41.980Z,96034.31
2022-08-04T01:42:11.068Z,96038.03
2022-08-04T01:44:41.247Z,96037.00
2022-08-04T01:47:09.407Z,96036.13
2022-08-04T01:49:40.573Z,96033.97
2022-08-04T01:52:09.331Z,96034.53
2022-08-04T01:54:39.471Z,96035.63
2022-08-04T01:57:45.967Z,96041.28
2022-08-04T01:59:56.375Z,96032.47
2022-08-04T02:02:24.480Z,96034.84
2022-08-04T02:04:51.482Z,96032.09
2022-08-04T02:07:36.721Z,96027.81
2022-08-04T02:10:25.630Z,96029.13
2022-08-04T02:13:07.308Z,96032.06
2022-08-04T02:15:45.384Z,96033.13
2022-08-04T02:18:12.094Z,96030.19
2022-08-04T02:20:43.517Z,96033.41
2022-08-04T02:23:15.699Z,96029.38
2022-08-04T02:26:00.793Z,96023.53
2022-08-04T02:28:35.405Z,96027.28
2022-08-04T02:31:11.890Z,96027.22
2022-08-04T02:33:42.759Z,96018.06
2022-08-04T02:36:34.767Z,96020.03
2022-08-04T02:39:04.359Z,96016.78
2022-08-04T02:41:32.072Z,96026.66
2022-08-04T02:44:01.397Z,96021.88
2022-08-04T02:46:29.445Z,96014.91
2022-08-04T02:48:56.747Z,96015.97
2022-08-04T02:51:29.850Z,96012.38
2022-08-04T02:54:00.124Z,96018.81
2022-08-04T02:56:30.168Z,96014.28
2022-08-04T02:59:04.169Z,96020.66
2022-08-04T03:01:31.740Z,96008.63
2022-08-04T03:04:24.539Z,96020.34
2022-08-04T03:07:14.452Z,96017.44
2022-08-04T03:09:42.405Z,96014.22
2022-08-04T03:12:39.434Z,96023.03
2022-08-04T03:15:15.128Z,96014.72
2022-08-04T03:17:53.698Z,96025.13
2022-08-04T03:20:38.684Z,96023.78
2022-08-04T03:23:24.242Z,96020.06
2022-08-04T03:25:55.844Z,96020.63
2022-08-04T03:29:00.606Z,96024.84
2022-08-04T03:31:33.147Z,96028.81
2022-08-04T03:34:21.783Z,96027.00
2022-08-04T03:37:26.235Z,96027.25
2022-08-04T03:40:08.783Z,96025.66
2022-08-04T03:42:55.615Z,96029.63
2022-08-04T03:45:34.491Z,96027.69
2022-08-04T03:48:39.942Z,96022.13
2022-08-04T03:51:46.845Z,96027.38
2022-08-04T03:54:44.464Z,96028.97
2022-08-04T03:57:43.565Z,96034.28
2022-08-04T04:00:19.725Z,96022.47
2022-08-04T04:03:28.243Z,96031.31
2022-08-04T04:06:20.765Z,96026.84
2022-08-04T04:08:55.467Z,96023.91
2022-08-04T04:11:56.413Z,96029.53
2022-08-04T04:14:30.738Z,96023.34
2022-08-04T04:17:31.612Z,96024.66
2022-08-04T04:20:17.677Z,96021.72
2022-08-04T04:23:10.384Z,96027.34
2022-08-04T04:25:55.628Z,96026.50
2022-08-04T04:28:43.634Z,96031.31
2022-08-04T04:31:30.976Z,96033.72
2022-08-04T04:34:06.549Z,96035.91
2022-08-04T04:36:59.758Z,96033.84
2022-08-04T04:39:37.221Z,96031.97
2022-08-04T04:42:19.099Z,96035.47
2022-08-04T04:45:04.747Z,96029.00
2022-08-04T04:48:08.799Z,96031.66
2022-08-04T04:50:49.905Z,96030.88
2022-08-04T04:53:38.505Z,96043.41
2022-08-04T04:56:20.461Z,96031.44
2022-08-04T04:58:48.146Z,96039.75
2022-08-04T05:02:07.515Z,96035.78
2022-08-04T05:05:07.665Z,96041.91
2022-08-04T05:08:44.643Z,96034.47
2022-08-04T05:11:10.912Z,96041.72
2022-08-04T05:14:37.280Z,96042.53
2022-08-04T05:16:43.389Z,96039.44
2022-08-04T05:19:22.930Z,96037.34
2022-08-04T05:22:18.653Z,96041.13
2022-08-04T05:24:49.257Z,96036.09
2022-08-04T05:27:20.800Z,96039.06
2022-08-04T05:29:54.846Z,96037.56
2022-08-04T05:32:26.665Z,96044.56
2022-08-04T05:34:59.794Z,96033.94
2022-08-04T05:37:28.364Z,96040.63
2022-08-04T05:39:58.525Z,96034.50
2022-08-04T05:42:27.425Z,96040.72
2022-08-04T05:44:55.930Z,96041.28
2022-08-04T05:47:24.405Z,96038.38
2022-08-04T05:50:01.519Z,96036.34
2022-08-04T05:52:32.028Z,96031.03
2022-08-04T05:55:00.673Z,96033.25
2022-08-04T05:57:28.661Z,96035.72
2022-08-04T05:59:57.593Z,96038.97
2022-08-04T06:02:25.473Z,96028.00
2022-08-04T06:04:53.492Z,96037.13
2022-08-04T06:07:20.697Z,96033.69
2022-08-04T06:09:47.674Z,96043.63
2022-08-04T06:12:21.073Z,96043.38
2022-08-04T06:14:50.732Z,96040.50
2022-08-04T06:18:35.217Z,96044.56
2022-08-04T06:20:18.962Z,96047.03
2022-08-04T06:22:58.772Z,96049.28
2022-08-04T06:25:30.037Z,96054.97
2022-08-04T06:27:58.248Z,96050.47
2022-08-04T06:30:27.689Z,96050.78
2022-08-04T06:33:04.013Z,96052.97
2022-08-04T06:35:33.795Z,96048.16
2022-08-04T06:38:02.103Z,96053.59
2022-08-04T06:40:33.341Z,96044.78
2022-08-04T06:43:03.315Z,96048.56
2022-08-04T06:45:31.814Z,96053.44
2022-08-04T06:48:01.026Z,96050.00
2022-08-04T06:51:25.420Z,96057.28
2022-08-04T06:53:16.108Z,96053.56
2022-08-04T06:55:45.530Z,96044.97
2022-08-04T06:58:13.380Z,96052.75
2022-08-04T07:00:42.921Z,96050.34
2022-08-04T07:03:11.579Z,96048.19
2022-08-04T07:05:39.655Z,96041.44
2022-08-04T07:08:08.060Z,96044.88
2022-08-04T07:10:35.523Z,96040.81
2022-08-04T07:13:03.152Z,96050.69
2022-08-04T07:15:30.388Z,96053.88
2022-08-04T07:18:00.326Z,96052.22
2022-08-04T07:20:34.231Z,96048.13
2022-08-04T07:23:06.387Z,96048.09
2022-08-04T07:25:59.531Z,96045.31
2022-08-04T07:28:28.327Z,96045.97
2022-08-04T07:30:57.633Z,96051.84
2022-08-04T07:33:25.952Z,96045.84
2022-08-04T07:36:04.795Z,96043.59
2022-08-04T07:38:48.614Z,96040.47
2022-08-04T07:41:36.253Z,96043.88
2022-08-04T07:44:04.298Z,96039.56
2022-08-04T07:46:31.759Z,96040.66
2022-08-04T07:49:00.829Z,96039.41
2022-08-04T07:51:28.838Z,96042.78
2022-08-04T07:53:57.437Z,96043.63
2022-08-04T07:56:26.221Z,96034.28
2022-08-04T07:58:53.041Z,96029.38
2022-08-04T08:01:20.232Z,96031.06
2022-08-04T08:03:48.042Z,96026.03
2022-08-04T08:06:30.672Z,96031.09
2022-08-04T08:09:01.986Z,96029.06
2022-08-04T08:12:36.346Z,96024.06
2022-08-04T08:14:28.492Z,96027.69
2022-08-04T08:16:55.432Z,96019.06
2022-08-04T08:19:22.114Z,96027.16
2022-08-04T08:21:59.768Z,96027.69
2022-08-04T08:24:32.207Z,96017.88
2022-08-04T08:27:00.541Z,96024.06
2022-08-04T08:29:29.585Z,96022.97
2022-08-04T08:32:01.456Z,96021.88
2022-08-04T08:34:33.052Z,96025.94
2022-08-04T08:37:10.011Z,96013.63
2022-08-04T08:39:53.029Z,96028.63
2022-08-04T08:42:43.185Z,96021.34
2022-08-04T08:45:34.637Z,96021.53
2022-08-04T08:48:19.793Z,96027.13
2022-08-04T08:51:28.717Z,96024.94
2022-08-04T08:54:19.598Z,96021.41
2022-08-04T08:56:52.224Z,96020.09
2022-08-04T08:59:56.497Z,96022.34
2022-08-04T09:02:48.017Z,96023.84
2022-08-04T09:05:57.799Z,96027.88
2022-08-04T09:08:45.728Z,96028.25
2022-08-04T09:11:16.768Z,96025.03
2022-08-04T09:13:50.298Z,96022.97
2022-08-04T09:16:47.437Z,96025.03
2022-08-04T09:19:37.687Z,96020.06
2022-08-04T09:22:16.367Z,96020.91
2022-08-04T09:24:50.850Z,96014.63
2022-08-04T09:27:30.918Z,96016.53
2022-08-04T09:30:10.312Z,96020.56
2022-08-04T09:32:41.442Z,96011.75
2022-08-04T09:35:16.685Z,96017.88
2022-08-04T09:37:52.459Z,96012.94
2022-08-04T09:40:53.808Z,96009.75
2022-08-04T09:43:58.760Z,96005.72
2022-08-04T09:46:23.440Z,96013.47
2022-08-04T09:49:02.244Z,96013.81
2022-08-04T09:51:58.603Z,96008.84
2022-08-04T09:54:56.921Z,96009.53
2022-08-04T09:57:53.587Z,96003.47
2022-08-04T10:00:20.925Z,96007.53
2022-08-04T10:03:14.761Z,96009.53
2022-08-04T10:06:03.151Z,96005.69
2022-08-04T10:09:04.426Z,95999.72
2022-08-04T10:12:08.101Z,96000.34
2022-08-04T10:14:47.866Z,95995.47
2022-08-04T10:17:26.168Z,96002.47
2022-08-04T10:20:36.445Z,95992.84
2022-08-04T10:23:23.796Z,95997.03
2022-08-04T10:26:20.866Z,95995.69
2022-08-04T10:28:56.089Z,95989.63
2022-08-04T10:31:36.737Z,95981.09
2022-08-04T10:34:13.098Z,95983.59
2022-08-04T10:37:05.583Z,95986.38
2022-08-04T10:40:03.774Z,95995.41
2022-08-04T10:42:32.011Z,95993.69
2022-08-04T10:45:17.137Z,95984.59
2022-08-04T10:48:07.445Z,95985.78
2022-08-04T10:50:42.631Z,95980.94
2022-08-04T10:53:22.874Z,95976.22
2022-08-04T10:56:07.651Z,95980.03
2022-08-04T10:58:47.095Z,95975.22
2022-08-04T11:02:00.007Z,95971.22
2022-08-04T11:04:30.676Z,95966.78
2022-08-04T11:07:00.305Z,95966.44
2022-08-04T11:09:29.181Z,95973.59
2022-08-04T11:12:03.753Z,95966.53
2022-08-04T11:14:42.071Z,95974.53
2022-08-04T11:17:14.811Z,95961.56
2022-08-04T11:20:32.258Z,95951.25
2022-08-04T11:23:03.110Z,95953.81
2022-08-04T11:25:47.281Z,95954.97
2022-08-04T11:28:35.772Z,95960.06
2022-08-04T11:31:11.225Z,95965.94
2022-08-04T11:33:59.291Z,95960.81
2022-08-04T11:36:41.891Z,95965.84
2022-08-04T11:39:15.864Z,95960.34
2022-08-04T11:41:51.478Z,95966.97
2022-08-04T11:44:31.977Z,95964.94
2022-08-04T11:47:08.132Z,95962.97
2022-08-04T11:49:56.006Z,95967.78
2022-08-04T11:52:26.240Z,95956.91
2022-08-04T11:54:55.664Z,95957.88
2022-08-04T11:57:25.707Z,95960.63
2022-08-04T12:00:23.555Z,95961.31
2022-08-04T12:03:21.865Z,95956.53
2022-08-04T12:05:54.350Z,95962.69
2022-08-04T12:08:21.175Z,95946.78
2022-08-04T12:11:01.929Z,95953.06
2022-08-04T12:13:34.674Z,95955.03
2022-08-04T12:16:15.301Z,95957.53
2022-08-04T12:18:57.585Z,95958.00
2022-08-04T12:21:53.017Z,95954.81
2022-08-04T12:24:31.169Z,95949.44
2022-08-04T12:27:02.823Z,95942.38
2022-08-04T12:29:33.622Z,95941.47
2022-08-04T12:32:11.907Z,95932.59
2022-08-04T12:34:43.598Z,95937.41
2022-08-04T12:37:26.846Z,95936.69
2022-08-04T12:40:27.258Z,95941.94
2022-08-04T12:42:56.035Z,95929.53
2022-08-04T12:45:27.110Z,95924.66
2022-08-04T12:47:58.022Z,95926.97
2022-08-04T12:50:25.882Z,95926.75
2022-08-04T12:53:02.470Z,95924.56
2022-08-04T12:55:31.992Z,95931.25
2022-08-04T12:58:01.724Z,95923.50
2022-08-04T13:00:41.809Z,95918.28
2022-08-04T13:03:12.329Z,95917.94
2022-08-04T13:05:42.898Z,95926.97
2022-08-04T13:08:13.805Z,95919.09
2022-08-04T13:10:44.555Z,95916.69
2022-08-04T13:13:19.239Z,95908.66
2022-08-04T13:15:58.231Z,95908.59
2022-08-04T13:18:30.435Z,95907.47
2022-08-04T13:21:19.967Z,95904.44
2022-08-04T13:24:10.880Z,95902.25
2022-08-04T13:26:54.730Z,95911.66
2022-08-04T13:29:58.745Z,95900.78
2022-08-04T13:32:17.750Z,95902.66
2022-08-04T13:34:49.079Z,95903.41
2022-08-04T13:37:25.293Z,95899.44
2022-08-04T13:39:55.830Z,95905.00
2022-08-04T13:42:25.823Z,95899.88
2022-08-04T13:44:59.869Z,95892.91
2022-08-04T13:47:34.175Z,95896.94
2022-08-04T13:50:23.482Z,95895.22
2022-08-04T13:52:53.270Z,95891.06
2022-08-04T13:55:36.532Z,95885.63
2022-08-04T13:58:14.314Z,95882.59
2022-08-04T14:01:00.521Z,95881.91
2022-08-04T14:03:53.962Z,95888.56
2022-08-04T14:06:24.515Z,95880.44
2022-08-04T14:09:15.472Z,95876.44
2022-08-04T14:12:06.901Z,95875.78
2022-08-04T14:14:34.667Z,95881.19
2022-08-04T14:17:19.722Z,95877.44
2022-08-04T14:19:49.930Z,95867.38
2022-08-04T14:22:31.141Z,95865.16
2022-08-04T14:25:15.430Z,95864.47
2022-08-04T14:27:51.281Z,95865.94
2022-08-04T14:30:24.985Z,95860.63
2022-08-04T14:32:56.385Z,95860.63
2022-08-04T14:35:26.459Z,95854.00
2022-08-04T14:38:06.166Z,95860.69
2022-08-04T14:40:35.428Z,95854.81
2022-08-04T14:43:07.579Z,95856.53
2022-08-04T14:45:54.776Z,95852.72
2022-08-04T14:48:23.006Z,95853.81
2022-08-04T14:50:50.934Z,95852.69
2022-08-04T14:53:18.684Z,95852.19
2022-08-04T14:55:55.289Z,95852.06
2022-08-04T14:58:32.645Z,95845.50
2022-08-04T15:01:10.502Z,95848.88
2022-08-04T15:03:52.275Z,95859.09
2022-08-04T15:06:30.697Z,95851.13
2022-08-04T15:09:01.183Z,95843.13
2022-08-04T15:11:28.297Z,95850.44
2022-08-04T15:13:56.644Z,95831.47
2022-08-04T15:16:25.083Z,95836.91
2022-08-04T15:18:54.925Z,95831.28
2022-08-04T15:21:25.942Z,95833.06
2022-08-04T15:23:52.838Z,95838.78
2022-08-04T15:26:28.948Z,95830.97
2022-08-04T15:29:01.920Z,95817.28
2022-08-04T15:32:04.113Z,95827.19
2022-08-04T15:34:16.862Z,95830.88
2022-08-04T15:36:58.004Z,95826.41
2022-08-04T15:39:36.142Z,95831.69
2022-08-04T15:42:23.317Z,95825.47
2022-08-04T15:45:22.333Z,95818.13
2022-08-04T15:48:02.685Z,95822.09
2022-08-04T15:50:30.208Z,95820.19
2022-08-04T15:53:01.245Z,95820.19
2022-08-04T15:55:39.886Z,95808.06
2022-08-04T15:58:14.779Z,95818.59
2022-08-04T16:00:50.569Z,95813.94
2022-08-04T16:03:58.181Z,95815.56
2022-08-04T16:06:29.525Z,95813.50
2022-08-04T16:09:05.073Z,95817.16
2022-08-04T16:11:40.200Z,95813.50
2022-08-04T16:14:10.947Z,95821.78
2022-08-04T16:16:41.156Z,95810.63
2022-08-04T16:19:09.191Z,95805.50
2022-08-04T16:21:52.464Z,95809.03
2022-08-04T16:24:29.191Z,95811.25
2022-08-04T16:26:57.904Z,95803.88
2022-08-04T16:29:41.987Z,95816.81
2022-08-04T16:32:21.632Z,95811.38
2022-08-04T16:35:05.193Z,95811.56
2022-08-04T16:37:37.887Z,95809.78
2022-08-04T16:40:23.676Z,95804.03
2022-08-04T16:42:50.786Z,95803.88
2022-08-04T16:45:19.563Z,95803.41
2022-08-04T16:47:49.511Z,95804.84
2022-08-04T16:50:17.003Z,95801.81
2022-08-04T16:52:46.496Z,95802.91
2022-08-04T16:55:18.720Z,95802.38
2022-08-04T16:57:58.999Z,95806.06
2022-08-04T17:00:37.026Z,95799.03
2022-08-04T17:03:10.360Z,95797.38
2022-08-04T17:05:40.110Z,95794.66
2022-08-04T17:10:56.191Z,95794.47
2022-08-04T17:14:03.975Z,95791.50
2022-08-04T17:16:21.412Z,95782.53
2022-08-04T17:19:25.052Z,95794.03
2022-08-04T17:22:10.511Z,95794.69
2022-08-04T17:24:40.679Z,95794.03
2022-08-04T17:28:20.196Z,95787.13
2022-08-04T17:29:55.320Z,95787.13
2022-08-04T17:32:23.001Z,95786.66
2022-08-04T17:34:51.986Z,95789.66
2022-08-04T17:37:39.868Z,95794.13
2022-08-04T17:40:22.536Z,95791.53
2022-08-04T17:44:04.105Z,95784.47
2022-08-04T17:46:29.533Z,95790.44
2022-08-04T17:48:59.767Z,95787.31
2022-08-04T17:52:04.767Z,95785.97
2022-08-04T17:54:37.293Z,95782.09
2022-08-04T17:57:21.926Z,95792.22
2022-08-04T17:59:58.932Z,95786.41
2022-08-04T18:02:33.048Z,95779.53
2022-08-04T18:05:06.197Z,95786.00
2022-08-04T18:08:42.843Z,95782.09
2022-08-04T18:10:52.447Z,95788.94
2022-08-04T18:13:24.988Z,95786.31
2022-08-04T18:16:02.481Z,95777.66
2022-08-04T18:18:29.800Z,95782.75
2022-08-04T18:20:56.701Z,95784.28
2022-08-04T18:23:31.756Z,95777.97
2022-08-04T18:25:59.096Z,95783.78
2022-08-04T18:28:28.689Z,95779.09
2022-08-04T18:30:57.735Z,95788.69
2022-08-04T18:36:35.386Z,95779.78
2022-08-04T18:39:12.576Z,95786.66
2022-08-04T18:42:00.829Z,95798.16
2022-08-04T18:44:31.538Z,95795.75
2022-08-04T18:47:19.288Z,95792.19
2022-08-04T18:50:59.274Z,95797.28
2022-08-04T18:52:33.597Z,95810.13
2022-08-04T18:55:01.819Z,95805.69
2022-08-04T18:57:58.553Z,95803.16
2022-08-04T19:00:19.881Z,95804.91
2022-08-04T19:02:47.505Z,95799.66
2022-08-04T19:05:17.334Z,95795.44
2022-08-04T19:08:02.212Z,95802.50
2022-08-04T19:10:31.786Z,95805.84
2022-08-04T19:12:59.570Z,95797.56
2022-08-04T19:15:34.637Z,95804.34
2022-08-04T19:18:02.456Z,95809.28
2022-08-04T19:20:33.898Z,95801.56
2022-08-04T19:24:26.259Z,95805.19
2022-08-04T19:26:01.312Z,95808.53
2022-08-04T19:28:34.404Z,95805.66
2022-08-04T19:31:11.487Z,95804.63
2022-08-04T19:33:58.682Z,95811.38
2022-08-04T19:36:33.130Z,95810.38
2022-08-04T19:39:03.248Z,95812.56
2022-08-04T19:41:31.993Z,95813.72
2022-08-04T19:43:58.690Z,95812.97
2022-08-04T19:46:28.622Z,95814.09
2022-08-04T19:49:00.466Z,95812.28
2022-08-04T19:51:29.907Z,95822.59
2022-08-04T19:54:04.308Z,95820.25
2022-08-04T19:56:40.353Z,95815.50
2022-08-04T19:59:10.319Z,95821.44
2022-08-04T20:01:44.681Z,95830.09
2022-08-04T20:04:12.658Z,95826.34
2022-08-04T20:06:39.655Z,95823.94
2022-08-04T20:09:24.587Z,95824.22
2022-08-04T20:11:51.986Z,95824.22
2022-08-04T20:14:31.259Z,95827.50
2022-08-04T20:17:01.120Z,95829.44
2022-08-04T20:19:27.757Z,95832.91
2022-08-04T20:21:57.167Z,95832.41
2022-08-04T20:24:39.429Z,95830.56
2022-08-04T20:27:15.923Z,95828.66
2022-08-04T20:29:46.087Z,95824.09
2022-08-04T20:32:20.147Z,95823.56
2022-08-04T20:34:51.397Z,95831.38
2022-08-04T20:37:19.597Z,95826.53
2022-08-04T20:39:54.847Z,95826.78
2022-08-04T20:42:27.806Z,95826.25
2022-08-04T20:45:01.461Z,95823.31
2022-08-04T20:47:35.264Z,95822.03
2022-08-04T20:50:08.928Z,95815.09
2022-08-04T20:52:37.758Z,95820.19
2022-08-04T20:55:05.675Z,95823.72
2022-08-04T20:57:48.681Z,95822.66
2022-08-04T21:00:30.229Z,95827.78
2022-08-04T21:02:59.182Z,95827.00
2022-08-04T21:05:26.530Z,95824.34
2022-08-04T21:07:56.756Z,95822.22
2022-08-04T21:10:26.607Z,95823.88
2022-08-04T21:12:54.281Z,95821.19
2022-08-04T21:15:25.662Z,95823.88
2022-08-04T21:17:56.875Z,95821.41
2022-08-04T21:20:29.633Z,95818.50
2022-08-04T21:23:01.555Z,95819.31
2022-08-04T21:25:29.427Z,95818.78
2022-08-04T21:27:58.455Z,95823.88
2022-08-04T21:30:26.957Z,95813.69
2022-08-04T21:32:55.109Z,95814.78
2022-08-04T21:35:30.811Z,95815.28
2022-08-04T21:38:16.372Z,95815.56
2022-08-04T21:40:54.286Z,95818.84
2022-08-04T21:43:27.241Z,95815.41
2022-08-04T21:45:56.861Z,95811.38
2022-08-04T21:48:30.870Z,95808.69
2022-08-04T21:50:57.672Z,95815.66
2022-08-04T21:53:24.414Z,95811.94
2022-08-04T21:56:04.366Z,95818.09
2022-08-04T21:58:34.622Z,95813.03
2022-08-04T22:01:05.867Z,95818.94
2022-08-04T22:06:29.136Z,95811.69
2022-08-04T22:08:57.290Z,95814.94
2022-08-04T22:11:48.192Z,95814.41
2022-08-04T22:14:17.667Z,95819.81
2022-08-04T22:16:56.487Z,95818.75
2022-08-04T22:19:39.704Z,95820.06
2022-08-04T22:22:12.555Z,95823.88
2022-08-04T22:24:40.649Z,95822.56
2022-08-04T22:27:11.282Z,95817.72
2022-08-04T22:29:39.212Z,95819.63
2022-08-04T22:32:11.203Z,95825.56
2022-08-04T22:34:45.388Z,95813.53
2022-08-04T22:37:12.757Z,95817.03
2022-08-04T22:39:56.189Z,95811.66
2022-08-04T22:42:24.050Z,95820.00
2022-08-04T22:44:50.825Z,95812.50
2022-08-04T22:47:20.589Z,95810.06
2022-08-04T22:49:56.487Z,95810.09
2022-08-04T22:52:37.518Z,95811.41
2022-08-04T22:55:22.797Z,95814.09
2022-08-04T22:58:04.979Z,95813.56
2022-08-04T23:00:36.146Z,95809.84
2022-08-04T23:03:06.866Z,95800.19
2022-08-04T23:05:37.966Z,95805.81
2022-08-04T23:08:05.409Z,95801.25
2022-08-04T23:10:33.076Z,95796.97
2022-08-04T23:13:04.239Z,95802.09
2022-08-04T23:15:33.688Z,95804.72
2022-08-04T23:18:00.792Z,95793.75
2022-08-04T23:20:32.973Z,95792.97
2022-08-04T23:23:14.675Z,95791.88
2022-08-04T23:26:07.683Z,95793.25
2022-08-04T23:28:31.331Z,95789.50
2022-08-04T23:30:58.046Z,95789.53
2022-08-04T23:33:24.797Z,95787.63
2022-08-04T23:36:11.858Z,95782.53
2022-08-04T23:38:39.225Z,95785.22
2022-08-04T23:41:17.253Z,95781.47
2022-08-04T23:43:55.521Z,95777.72
2022-08-04T23:46:23.086Z,95780.94
2022-08-04T23:48:49.711Z,95777.44
2022-08-04T23:51:16.595Z,95776.09
2022-08-04T23:54:02.066Z,95773.41
2022-08-04T23:56:32.110Z,95772.34
2022-08-04T23:59:00.252Z,95765.91
